sensor_id;sensor_type;location;lat;lon;timestamp;temperature;humidity
1011;DHT22;494;48.744;10.106;2023-07-22T00:01:12;15.30;28.00
1011;DHT22;494;48.744;10.106;2023-07-22T00:03:59;15.30;28.20
1011;DHT22;494;48.744;10.106;2023-07-22T00:06:57;15.30;28.40
1011;DHT22;494;48.744;10.106;2023-07-22T00:09:45;15.20;28.60
1011;DHT22;494;48.744;10.106;2023-07-22T00:12:39;15.20;29.10
1011;DHT22;494;48.744;10.106;2023-07-22T00:15:25;15.20;29.20
1011;DHT22;494;48.744;10.106;2023-07-22T00:18:12;15.20;28.90
1011;DHT22;494;48.744;10.106;2023-07-22T00:21:03;15.20;28.60
1011;DHT22;494;48.744;10.106;2023-07-22T00:23:51;15.20;28.40
1011;DHT22;494;48.744;10.106;2023-07-22T00:26:23;15.20;28.40
1011;DHT22;494;48.744;10.106;2023-07-22T00:28:57;15.20;28.40
1011;DHT22;494;48.744;10.106;2023-07-22T00:31:27;15.20;28.30
1011;DHT22;494;48.744;10.106;2023-07-22T00:34:05;15.10;28.40
1011;DHT22;494;48.744;10.106;2023-07-22T00:36:45;15.10;28.50
1011;DHT22;494;48.744;10.106;2023-07-22T00:39:26;15.00;28.20
1011;DHT22;494;48.744;10.106;2023-07-22T00:42:07;15.00;28.20
1011;DHT22;494;48.744;10.106;2023-07-22T00:45:03;15.10;28.30
1011;DHT22;494;48.744;10.106;2023-07-22T00:47:44;15.10;28.20
1011;DHT22;494;48.744;10.106;2023-07-22T00:50:49;15.10;28.00
1011;DHT22;494;48.744;10.106;2023-07-22T00:53:27;15.00;27.60
1011;DHT22;494;48.744;10.106;2023-07-22T00:56:04;14.90;27.60
1011;DHT22;494;48.744;10.106;2023-07-22T00:58:49;14.80;27.80
1011;DHT22;494;48.744;10.106;2023-07-22T01:01:24;14.90;28.00
1011;DHT22;494;48.744;10.106;2023-07-22T01:03:55;14.80;27.90
1011;DHT22;494;48.744;10.106;2023-07-22T01:06:28;14.80;27.90
1011;DHT22;494;48.744;10.106;2023-07-22T01:08:59;14.70;28.20
1011;DHT22;494;48.744;10.106;2023-07-22T01:11:32;14.70;28.40
1011;DHT22;494;48.744;10.106;2023-07-22T01:14:02;14.70;28.40
1011;DHT22;494;48.744;10.106;2023-07-22T01:16:33;14.70;28.70
1011;DHT22;494;48.744;10.106;2023-07-22T01:19:05;14.70;28.50
1011;DHT22;494;48.744;10.106;2023-07-22T01:21:40;14.70;28.20
1011;DHT22;494;48.744;10.106;2023-07-22T01:24:18;14.50;28.10
1011;DHT22;494;48.744;10.106;2023-07-22T01:26:49;14.40;29.00
1011;DHT22;494;48.744;10.106;2023-07-22T01:29:21;14.40;28.90
1011;DHT22;494;48.744;10.106;2023-07-22T01:31:54;14.40;28.90
1011;DHT22;494;48.744;10.106;2023-07-22T01:34:33;14.30;29.10
1011;DHT22;494;48.744;10.106;2023-07-22T01:37:03;14.20;29.50
1011;DHT22;494;48.744;10.106;2023-07-22T01:39:41;14.10;30.10
1011;DHT22;494;48.744;10.106;2023-07-22T01:42:14;14.10;30.20
1011;DHT22;494;48.744;10.106;2023-07-22T01:44:56;14.10;30.00
1011;DHT22;494;48.744;10.106;2023-07-22T01:47:37;14.10;30.00
1011;DHT22;494;48.744;10.106;2023-07-22T01:50:09;14.10;30.00
1011;DHT22;494;48.744;10.106;2023-07-22T01:52:42;14.10;29.90
1011;DHT22;494;48.744;10.106;2023-07-22T01:55:14;14.00;29.70
1011;DHT22;494;48.744;10.106;2023-07-22T01:57:45;14.00;30.50
1011;DHT22;494;48.744;10.106;2023-07-22T02:00:17;14.00;30.60
1011;DHT22;494;48.744;10.106;2023-07-22T02:02:48;14.10;30.60
1011;DHT22;494;48.744;10.106;2023-07-22T02:05:17;14.10;30.50
1011;DHT22;494;48.744;10.106;2023-07-22T02:07:50;14.10;30.10
1011;DHT22;494;48.744;10.106;2023-07-22T02:10:21;14.10;29.80
1011;DHT22;494;48.744;10.106;2023-07-22T02:13:04;14.10;29.90
1011;DHT22;494;48.744;10.106;2023-07-22T02:15:46;14.10;29.90
1011;DHT22;494;48.744;10.106;2023-07-22T02:18:16;14.20;29.50
1011;DHT22;494;48.744;10.106;2023-07-22T02:20:45;14.10;29.40
1011;DHT22;494;48.744;10.106;2023-07-22T02:23:17;14.20;29.20
1011;DHT22;494;48.744;10.106;2023-07-22T02:25:52;14.10;29.00
1011;DHT22;494;48.744;10.106;2023-07-22T02:28:25;14.10;28.80
1011;DHT22;494;48.744;10.106;2023-07-22T02:30:55;14.10;28.70
1011;DHT22;494;48.744;10.106;2023-07-22T02:33:28;14.10;28.80
1011;DHT22;494;48.744;10.106;2023-07-22T02:36:02;14.10;28.60
1011;DHT22;494;48.744;10.106;2023-07-22T02:38:41;14.20;28.60
1011;DHT22;494;48.744;10.106;2023-07-22T02:41:14;14.10;28.50
1011;DHT22;494;48.744;10.106;2023-07-22T02:43:50;14.00;28.80
1011;DHT22;494;48.744;10.106;2023-07-22T02:46:21;13.90;29.10
1011;DHT22;494;48.744;10.106;2023-07-22T02:48:53;13.90;28.90
1011;DHT22;494;48.744;10.106;2023-07-22T02:51:25;13.70;28.80
1011;DHT22;494;48.744;10.106;2023-07-22T02:54:03;13.90;29.00
1011;DHT22;494;48.744;10.106;2023-07-22T02:56:34;13.80;28.70
1011;DHT22;494;48.744;10.106;2023-07-22T02:59:09;13.80;28.70
1011;DHT22;494;48.744;10.106;2023-07-22T03:01:41;13.80;28.50
1011;DHT22;494;48.744;10.106;2023-07-22T03:04:12;13.80;28.50
1011;DHT22;494;48.744;10.106;2023-07-22T03:06:43;13.80;28.40
1011;DHT22;494;48.744;10.106;2023-07-22T03:09:13;13.80;28.60
1011;DHT22;494;48.744;10.106;2023-07-22T03:11:45;13.80;28.90
1011;DHT22;494;48.744;10.106;2023-07-22T03:14:17;13.80;29.00
1011;DHT22;494;48.744;10.106;2023-07-22T03:16:49;13.80;29.10
1011;DHT22;494;48.744;10.106;2023-07-22T03:19:22;13.70;29.00
1011;DHT22;494;48.744;10.106;2023-07-22T03:21:56;13.70;29.00
1011;DHT22;494;48.744;10.106;2023-07-22T03:24:31;13.70;29.10
1011;DHT22;494;48.744;10.106;2023-07-22T03:27:05;13.70;29.20
1011;DHT22;494;48.744;10.106;2023-07-22T03:29:36;13.80;29.20
1011;DHT22;494;48.744;10.106;2023-07-22T03:32:08;13.80;29.20
1011;DHT22;494;48.744;10.106;2023-07-22T03:34:38;13.80;29.10
1011;DHT22;494;48.744;10.106;2023-07-22T03:37:09;13.80;29.00
1011;DHT22;494;48.744;10.106;2023-07-22T03:39:48;13.80;28.90
1011;DHT22;494;48.744;10.106;2023-07-22T03:42:20;13.80;28.90
1011;DHT22;494;48.744;10.106;2023-07-22T03:44:50;13.80;29.00
1011;DHT22;494;48.744;10.106;2023-07-22T03:47:20;13.80;28.90
1011;DHT22;494;48.744;10.106;2023-07-22T03:50:20;13.70;28.70
1011;DHT22;494;48.744;10.106;2023-07-22T03:52:50;13.80;28.60
1011;DHT22;494;48.744;10.106;2023-07-22T03:55:28;13.70;28.30
1011;DHT22;494;48.744;10.106;2023-07-22T03:58:08;13.70;28.20
1011;DHT22;494;48.744;10.106;2023-07-22T04:00:38;13.70;28.00
1011;DHT22;494;48.744;10.106;2023-07-22T04:03:09;13.70;28.00
1011;DHT22;494;48.744;10.106;2023-07-22T04:05:40;13.70;27.80
1011;DHT22;494;48.744;10.106;2023-07-22T04:08:11;13.70;27.70
1011;DHT22;494;48.744;10.106;2023-07-22T04:10:51;13.70;27.70
1011;DHT22;494;48.744;10.106;2023-07-22T04:13:24;13.70;28.10
1011;DHT22;494;48.744;10.106;2023-07-22T04:15:54;13.60;29.30
1011;DHT22;494;48.744;10.106;2023-07-22T04:18:34;13.60;30.10
1011;DHT22;494;48.744;10.106;2023-07-22T04:21:12;13.50;31.30
1011;DHT22;494;48.744;10.106;2023-07-22T04:23:41;13.40;32.40
1011;DHT22;494;48.744;10.106;2023-07-22T04:26:32;13.30;33.80
1011;DHT22;494;48.744;10.106;2023-07-22T04:29:07;13.10;34.80
1011;DHT22;494;48.744;10.106;2023-07-22T04:31:39;13.10;35.20
1011;DHT22;494;48.744;10.106;2023-07-22T04:34:12;13.10;35.80
1011;DHT22;494;48.744;10.106;2023-07-22T04:36:43;13.00;36.20
1011;DHT22;494;48.744;10.106;2023-07-22T04:39:15;13.20;36.20
1011;DHT22;494;48.744;10.106;2023-07-22T04:41:46;13.20;36.30
1011;DHT22;494;48.744;10.106;2023-07-22T04:44:31;13.30;36.20
1011;DHT22;494;48.744;10.106;2023-07-22T04:47:15;13.60;35.80
1011;DHT22;494;48.744;10.106;2023-07-22T04:49:46;13.70;35.00
1011;DHT22;494;48.744;10.106;2023-07-22T04:52:18;13.90;34.50
1011;DHT22;494;48.744;10.106;2023-07-22T04:54:47;14.00;33.70
1011;DHT22;494;48.744;10.106;2023-07-22T04:57:17;14.10;33.20
1011;DHT22;494;48.744;10.106;2023-07-22T05:38:09;15.30;30.00
1011;DHT22;494;48.744;10.106;2023-07-22T06:32:52;18.60;20.00
1011;DHT22;494;48.744;10.106;2023-07-22T06:35:36;18.80;19.30
1011;DHT22;494;48.744;10.106;2023-07-22T06:38:26;19.10;18.90
1011;DHT22;494;48.744;10.106;2023-07-22T06:41:14;19.20;18.70
